Airfield :
LOGIN :

Register | Disclaimer

   EN    FR    IT 

 










Legend :    VFR   Marginal VFR   IFR   Intensive IFR   Very Intensive IFR
Visi :
Ceiling :
>= 8 km
>= 3000ft
5 to 8 km
1000 to 3000 ft
1500m to 5 km
500 to 1000 ft
800 to 1500m
200 to 500 ft
< 800m
< 200 ft
Symbols :   Thunderstorms  Fog  Heavy snow  Heavy precipitations  Wind > 20 kt
SIGMETs :     Misc.  Thunderstorms  Icing  Turbulence  Mountain Waves  Volcanic Ashes







- Airport Elevation : 1043 ft
- IATA code : SLD


LZSL - Sliac

CURRENT METAR :
  • 220030Z 01005KT 340V040 4000 BR FEW002 BKN085 08/07 Q1016

EXPIRED METARs :
  • 220021Z 02004KT 340V040 4000 BR FEW002 BKN085 08/07 Q1016
  • 220005Z 01004KT 2500 BR SCT003 BKN030 08/08 Q1016
  • 212340Z 01004KT 340V080 0500 R36/1300U FG BKN001 08/08 Q1016
  • 212330Z 00000KT 0400 R36/1200N FG BKN001 09/09 Q1016
  • 212300Z 00000KT 0200 R36/0800U FG OVC001 09/09 Q1017
  • 212230Z VRB01KT 0100 R36/0350N FG VV001 09/08 Q1016
  • 212200Z 00000KT 0100 R36/0300N FG VV001 09/08 Q1017

TAF TAF LZSL
Valid from the 22 at 00:00 until the 22 at 09:00 UTC


212300Z 2200/2209 VRB02KT 0600 BCFG BKN003
TEMPO 2200/2208 0100 FG VV001
No reported NOTAMs for that airfield.



MET'MAP, your aeronautical weather chart ! - Copyright ORBIFLY December 2007 - Disclaimer

ORBIFLY MET'MAP TEAM :

Programming & Development : Alexandra Zaïnal
Concept & Development : Baudouin d'Aumeries
Co-Development & Prog : Marc-Olivier Méhu
Technical & hardware support : Manuel Goepfert

Contact : metmap@orbifly.com




SOURCES & CREDITS :

   NOAA